createdAt,value
2022-11-18T00:01:30.828Z,8.12
2022-11-18T00:03:59.124Z,8.13
2022-11-18T00:06:29.150Z,8.11
2022-11-18T00:08:59.079Z,8.12
2022-11-18T00:11:47.514Z,8.14
2022-11-18T00:14:21.131Z,8.11
2022-11-18T00:16:51.811Z,8.13
2022-11-18T00:19:21.152Z,8.14
2022-11-18T00:21:49.927Z,8.16
2022-11-18T00:24:18.255Z,8.18
2022-11-18T00:26:47.851Z,8.17
2022-11-18T00:29:17.234Z,8.12
2022-11-18T00:31:45.825Z,8.15
2022-11-18T00:34:16.415Z,8.19
2022-11-18T00:36:45.559Z,8.21
2022-11-18T00:39:15.776Z,8.20
2022-11-18T00:42:02.475Z,8.17
2022-11-18T00:44:32.409Z,8.14
2022-11-18T00:47:00.732Z,8.06
2022-11-18T00:49:30.179Z,8.04
2022-11-18T00:51:58.448Z,8.01
2022-11-18T00:54:26.860Z,8.02
2022-11-18T00:56:55.146Z,8.00
2022-11-18T00:59:23.424Z,7.91
2022-11-18T01:01:53.610Z,7.94
2022-11-18T01:04:21.951Z,7.94
2022-11-18T01:06:50.295Z,7.90
2022-11-18T01:09:18.780Z,7.82
2022-11-18T01:12:04.967Z,7.86
2022-11-18T01:14:33.575Z,7.90
2022-11-18T01:17:03.187Z,7.89
2022-11-18T01:19:31.489Z,7.92
2022-11-18T01:22:03.058Z,7.82
2022-11-18T01:24:32.365Z,7.84
2022-11-18T01:27:01.527Z,7.77
2022-11-18T01:29:32.014Z,7.83
2022-11-18T01:34:49.818Z,7.82
2022-11-18T01:37:18.069Z,7.76
2022-11-18T01:39:46.217Z,7.76
2022-11-18T01:42:16.579Z,7.71
2022-11-18T01:44:59.391Z,7.71
2022-11-18T01:47:32.894Z,7.74
2022-11-18T01:50:03.628Z,7.73
2022-11-18T01:52:35.081Z,7.75
2022-11-18T01:55:14.185Z,7.64
2022-11-18T01:57:45.183Z,7.60
2022-11-18T02:00:17.327Z,7.56
2022-11-18T02:02:47.009Z,7.54
2022-11-18T02:05:17.832Z,7.50
2022-11-18T02:07:50.434Z,7.48
2022-11-18T02:10:23.339Z,7.42
2022-11-18T02:12:55.092Z,7.41
2022-11-18T02:15:34.029Z,7.42
2022-11-18T02:18:09.234Z,7.40
2022-11-18T02:20:42.845Z,7.45
2022-11-18T02:23:43.383Z,7.39
2022-11-18T02:26:48.308Z,7.33
2022-11-18T02:29:20.644Z,7.32
2022-11-18T02:31:58.598Z,7.35
2022-11-18T02:34:42.206Z,7.26
2022-11-18T02:37:18.859Z,7.25
2022-11-18T02:39:54.951Z,7.24
2022-11-18T02:42:25.753Z,7.26
2022-11-18T02:45:01.370Z,7.25
2022-11-18T02:47:32.179Z,7.29
2022-11-18T02:50:05.365Z,7.25
2022-11-18T02:52:43.056Z,7.25
2022-11-18T02:55:15.237Z,7.22
2022-11-18T02:57:48.965Z,7.25
2022-11-18T03:00:19.505Z,7.19
2022-11-18T03:02:50.027Z,7.19
2022-11-18T03:05:24.209Z,7.19
2022-11-18T03:07:57.754Z,7.12
2022-11-18T03:10:33.949Z,7.14
2022-11-18T03:13:10.668Z,7.22
2022-11-18T03:15:50.190Z,7.20
2022-11-18T03:18:28.188Z,7.20
2022-11-18T03:21:02.701Z,7.14
2022-11-18T03:23:37.285Z,7.17
2022-11-18T03:26:14.321Z,7.15
2022-11-18T03:28:47.751Z,7.15
2022-11-18T03:31:25.993Z,7.12
2022-11-18T03:34:03.667Z,7.11
2022-11-18T03:36:37.419Z,7.07
2022-11-18T03:39:09.436Z,7.02
2022-11-18T03:41:46.110Z,7.07
2022-11-18T03:44:19.504Z,7.12
2022-11-18T03:46:56.649Z,7.15
2022-11-18T03:49:32.127Z,7.25
2022-11-18T03:52:07.825Z,7.25
2022-11-18T03:54:42.458Z,7.27
2022-11-18T03:57:15.303Z,7.27
2022-11-18T03:59:50.794Z,7.19
2022-11-18T04:02:22.849Z,7.17
2022-11-18T04:04:54.405Z,7.19
2022-11-18T04:07:26.141Z,7.19
2022-11-18T04:09:59.486Z,7.12
2022-11-18T04:12:32.296Z,7.15
2022-11-18T04:15:00.917Z,7.17
2022-11-18T04:17:30.854Z,7.19
2022-11-18T04:19:59.018Z,7.16
2022-11-18T04:22:29.903Z,7.10
2022-11-18T04:24:58.197Z,7.10
2022-11-18T04:27:26.417Z,7.15
2022-11-18T04:29:54.655Z,7.17
2022-11-18T04:32:22.873Z,7.22
2022-11-18T04:34:52.737Z,7.15
2022-11-18T04:37:21.516Z,7.18
2022-11-18T04:39:49.890Z,7.20
2022-11-18T04:42:18.202Z,7.17
2022-11-18T04:44:46.344Z,7.11
2022-11-18T04:47:14.657Z,7.14
2022-11-18T04:49:42.834Z,7.11
2022-11-18T04:52:12.933Z,7.10
2022-11-18T04:54:41.329Z,7.12
2022-11-18T04:57:09.489Z,7.13
2022-11-18T04:59:38.209Z,7.11
2022-11-18T05:02:06.517Z,7.09
2022-11-18T05:04:36.180Z,7.07
2022-11-18T05:07:07.839Z,7.05
2022-11-18T05:09:37.564Z,7.05
2022-11-18T05:12:23.634Z,7.03
2022-11-18T05:14:51.826Z,6.97
2022-11-18T05:17:20.274Z,7.02
2022-11-18T05:19:48.743Z,7.02
2022-11-18T05:22:17.649Z,7.10
2022-11-18T05:24:47.429Z,7.10
2022-11-18T05:27:16.327Z,7.12
2022-11-18T05:29:45.192Z,7.16
2022-11-18T05:32:13.851Z,7.23
2022-11-18T05:34:43.216Z,7.26
2022-11-18T05:37:11.836Z,7.26
2022-11-18T05:39:40.200Z,7.30
2022-11-18T05:42:28.878Z,7.24
2022-11-18T05:44:58.795Z,7.27
2022-11-18T05:47:27.796Z,7.27
2022-11-18T05:49:56.246Z,7.24
2022-11-18T05:52:24.736Z,7.28
2022-11-18T05:54:53.019Z,7.24
2022-11-18T05:57:22.599Z,7.26
2022-11-18T05:59:50.940Z,7.30
2022-11-18T06:02:25.317Z,7.37
2022-11-18T06:04:57.856Z,7.48
2022-11-18T06:07:30.544Z,7.52
2022-11-18T06:10:05.523Z,7.57
2022-11-18T06:12:41.077Z,7.63
2022-11-18T06:15:14.800Z,7.64
2022-11-18T06:17:48.102Z,7.67
2022-11-18T06:20:18.947Z,7.67
2022-11-18T06:22:48.314Z,7.62
2022-11-18T06:25:16.976Z,7.56
2022-11-18T06:27:48.620Z,7.47
2022-11-18T06:30:20.072Z,7.42
2022-11-18T06:32:51.380Z,7.37
2022-11-18T06:35:20.200Z,7.30
2022-11-18T06:37:54.028Z,7.29
2022-11-18T06:40:23.136Z,7.24
2022-11-18T06:43:10.237Z,7.18
2022-11-18T06:45:38.612Z,7.14
2022-11-18T06:48:11.243Z,7.17
2022-11-18T06:50:39.526Z,7.19
2022-11-18T06:53:07.782Z,7.25
2022-11-18T06:55:36.622Z,7.22
2022-11-18T06:58:06.289Z,7.23
2022-11-18T07:00:34.619Z,7.24
2022-11-18T07:03:03.727Z,7.24
2022-11-18T07:05:32.014Z,7.24
2022-11-18T07:08:00.452Z,7.31
2022-11-18T07:10:29.283Z,7.32
2022-11-18T07:12:57.483Z,7.37
2022-11-18T07:15:27.100Z,7.42
2022-11-18T07:17:55.306Z,7.50
2022-11-18T07:20:23.494Z,7.50
2022-11-18T07:22:53.800Z,7.61
2022-11-18T07:25:22.058Z,7.64
2022-11-18T07:27:50.227Z,7.72
2022-11-18T07:30:19.118Z,7.74
2022-11-18T07:32:48.828Z,7.83
2022-11-18T07:35:18.901Z,7.85
2022-11-18T07:37:53.564Z,7.85
2022-11-18T07:40:28.840Z,7.83
2022-11-18T07:42:57.112Z,7.84
2022-11-18T07:45:25.731Z,7.87
2022-11-18T07:47:55.358Z,7.83
2022-11-18T07:50:27.264Z,7.81
2022-11-18T07:52:56.997Z,7.84
2022-11-18T07:55:30.854Z,7.85
2022-11-18T07:58:00.435Z,7.84
2022-11-18T08:00:28.834Z,7.89
2022-11-18T08:02:58.853Z,7.87
2022-11-18T08:05:27.292Z,7.89
2022-11-18T08:07:55.595Z,7.90
2022-11-18T08:10:24.888Z,7.94
2022-11-18T08:12:53.177Z,7.96
2022-11-18T08:15:21.352Z,7.99
2022-11-18T08:17:49.690Z,8.02
2022-11-18T08:20:19.589Z,8.04
2022-11-18T08:22:47.838Z,8.07
2022-11-18T08:25:16.246Z,8.14
2022-11-18T08:27:44.714Z,8.14
2022-11-18T08:30:13.901Z,8.19
2022-11-18T08:32:42.248Z,8.23
2022-11-18T08:35:11.390Z,8.29
2022-11-18T08:37:41.330Z,8.27
2022-11-18T08:40:10.602Z,8.34
2022-11-18T08:42:39.472Z,8.41
2022-11-18T08:45:09.444Z,8.44
2022-11-18T08:47:38.592Z,8.43
2022-11-18T08:50:09.819Z,8.42
2022-11-18T08:52:38.273Z,8.45
2022-11-18T08:55:09.049Z,8.46
2022-11-18T08:57:37.266Z,8.48
2022-11-18T09:00:07.696Z,8.53
2022-11-18T09:02:37.131Z,8.56
2022-11-18T09:05:06.492Z,8.65
2022-11-18T09:07:35.170Z,8.63
2022-11-18T09:10:03.569Z,8.67
2022-11-18T09:12:33.172Z,8.67
2022-11-18T09:15:17.929Z,8.68
2022-11-18T09:17:49.045Z,8.73
2022-11-18T09:20:18.041Z,8.72
2022-11-18T09:22:46.177Z,8.68
2022-11-18T09:25:14.418Z,8.67
2022-11-18T09:27:44.055Z,8.68
2022-11-18T09:30:12.724Z,8.63
2022-11-18T09:32:40.870Z,8.71
2022-11-18T09:35:09.251Z,8.71
2022-11-18T09:37:37.891Z,8.72
2022-11-18T09:40:07.671Z,8.76
2022-11-18T09:42:49.470Z,8.74
2022-11-18T09:45:25.576Z,8.74
2022-11-18T09:47:58.593Z,8.77
2022-11-18T09:50:49.586Z,8.79
2022-11-18T09:53:20.815Z,8.89
2022-11-18T09:55:50.050Z,8.92
2022-11-18T09:58:26.168Z,8.92
2022-11-18T10:00:54.901Z,8.95
2022-11-18T10:03:28.314Z,8.95
2022-11-18T10:06:02.858Z,8.96
2022-11-18T10:08:36.707Z,8.94
2022-11-18T10:11:14.794Z,8.98
2022-11-18T10:13:55.787Z,9.04
2022-11-18T10:16:37.810Z,9.04
2022-11-18T10:19:18.035Z,9.06
2022-11-18T10:21:55.390Z,9.02
2022-11-18T10:24:28.924Z,9.05
2022-11-18T10:26:58.833Z,9.04
2022-11-18T10:29:28.779Z,9.03
2022-11-18T10:32:04.702Z,8.95
2022-11-18T10:34:33.909Z,8.89
2022-11-18T10:37:03.783Z,8.89
2022-11-18T10:39:32.273Z,8.93
2022-11-18T10:42:04.233Z,8.93
2022-11-18T10:44:36.647Z,8.91
2022-11-18T10:47:18.374Z,8.91
2022-11-18T10:49:47.391Z,8.94
2022-11-18T10:52:17.880Z,8.93
2022-11-18T10:54:46.292Z,8.93
2022-11-18T10:57:22.585Z,8.94
2022-11-18T10:59:56.364Z,8.95
2022-11-18T11:02:31.267Z,8.95
2022-11-18T11:05:02.524Z,8.98
2022-11-18T11:07:32.846Z,9.04
2022-11-18T11:10:03.350Z,9.04
2022-11-18T11:12:34.671Z,9.06
2022-11-18T11:15:06.624Z,9.11
2022-11-18T11:17:39.980Z,9.06
2022-11-18T11:20:18.044Z,9.18
2022-11-18T11:22:46.815Z,9.20
2022-11-18T11:25:17.841Z,9.21
2022-11-18T11:30:50.974Z,9.26
2022-11-18T11:33:32.598Z,9.35
2022-11-18T11:36:22.729Z,9.41
2022-11-18T11:39:11.325Z,9.46
2022-11-18T11:41:45.641Z,9.41
2022-11-18T11:44:32.642Z,9.52
2022-11-18T11:47:32.037Z,9.57
2022-11-18T11:50:03.459Z,9.57
2022-11-18T11:52:41.952Z,9.63
2022-11-18T11:55:19.955Z,9.75
2022-11-18T11:58:06.381Z,9.79
2022-11-18T12:00:41.225Z,9.86
2022-11-18T12:03:29.191Z,9.80
2022-11-18T12:05:57.378Z,9.85
2022-11-18T12:08:34.024Z,9.84
2022-11-18T12:11:12.787Z,9.86
2022-11-18T12:13:53.674Z,9.83
2022-11-18T12:16:29.325Z,9.74
2022-11-18T12:19:02.366Z,9.76
2022-11-18T12:21:56.349Z,9.72
2022-11-18T12:24:34.196Z,9.74
2022-11-18T12:27:06.951Z,9.85
2022-11-18T12:29:44.079Z,9.93
2022-11-18T12:32:31.577Z,9.90
2022-11-18T12:35:06.199Z,9.77
2022-11-18T12:37:59.486Z,9.67
2022-11-18T12:40:37.388Z,9.66
2022-11-18T12:43:24.635Z,9.65
2022-11-18T12:45:58.394Z,9.56
2022-11-18T12:48:38.508Z,9.53
2022-11-18T12:51:45.324Z,9.49
2022-11-18T12:54:41.180Z,9.41
2022-11-18T12:57:19.814Z,9.34
2022-11-18T12:59:48.660Z,9.35
2022-11-18T13:02:23.974Z,9.32
2022-11-18T13:05:10.907Z,9.29
2022-11-18T13:08:03.423Z,9.27
2022-11-18T13:10:36.149Z,9.26
2022-11-18T13:13:06.324Z,9.25
2022-11-18T13:15:51.791Z,9.21
2022-11-18T13:18:21.594Z,9.23
2022-11-18T13:20:57.556Z,9.23
2022-11-18T13:23:46.314Z,9.25
2022-11-18T13:26:22.757Z,9.27
2022-11-18T13:29:07.299Z,9.27
2022-11-18T13:31:43.859Z,9.24
2022-11-18T13:34:19.050Z,9.25
2022-11-18T13:36:49.745Z,9.23
2022-11-18T13:39:24.252Z,9.26
2022-11-18T13:42:06.484Z,9.25
2022-11-18T13:44:35.861Z,9.29
2022-11-18T13:47:09.569Z,9.26
2022-11-18T13:49:58.124Z,9.32
2022-11-18T13:52:31.086Z,9.30
2022-11-18T13:55:01.786Z,9.29
2022-11-18T13:57:31.858Z,9.35
2022-11-18T14:00:05.803Z,9.34
2022-11-18T14:02:40.984Z,9.37
2022-11-18T14:05:26.270Z,9.40
2022-11-18T14:08:07.206Z,9.39
2022-11-18T14:10:42.867Z,9.40
2022-11-18T14:13:28.638Z,9.41
2022-11-18T14:15:58.763Z,9.45
2022-11-18T14:18:33.425Z,9.44
2022-11-18T14:21:03.086Z,9.52
2022-11-18T14:23:34.405Z,9.51
2022-11-18T14:26:05.846Z,9.55
2022-11-18T14:28:37.128Z,9.60
2022-11-18T14:31:21.006Z,9.63
2022-11-18T14:34:17.281Z,9.60
2022-11-18T14:36:45.624Z,9.61
2022-11-18T14:39:26.348Z,9.65
2022-11-18T14:41:56.516Z,9.67
2022-11-18T14:44:28.309Z,9.62
2022-11-18T14:46:59.699Z,9.59
2022-11-18T14:49:30.795Z,9.57
2022-11-18T14:52:02.516Z,9.62
2022-11-18T14:54:31.782Z,9.62
2022-11-18T14:57:02.803Z,9.62
2022-11-18T14:59:33.008Z,9.63
2022-11-18T15:02:01.239Z,9.62
2022-11-18T15:04:29.714Z,9.63
2022-11-18T15:06:58.828Z,9.65
2022-11-18T15:09:30.405Z,9.66
2022-11-18T15:12:03.629Z,9.62
2022-11-18T15:14:34.907Z,9.63
2022-11-18T15:17:03.270Z,9.61
2022-11-18T15:19:32.247Z,9.61
2022-11-18T15:22:00.628Z,9.62
2022-11-18T15:24:28.838Z,9.59
2022-11-18T15:26:56.995Z,9.59
2022-11-18T15:29:26.635Z,9.53
2022-11-18T15:31:56.478Z,9.54
2022-11-18T15:34:25.119Z,9.57
2022-11-18T15:36:53.512Z,9.59
2022-11-18T15:39:22.193Z,9.54
2022-11-18T15:41:50.506Z,9.49
2022-11-18T15:44:19.173Z,9.49
2022-11-18T15:46:48.130Z,9.48
2022-11-18T15:49:18.589Z,9.50
2022-11-18T15:51:46.911Z,9.49
2022-11-18T15:54:15.179Z,9.42
2022-11-18T15:56:43.385Z,9.36
2022-11-18T15:59:13.298Z,9.42
2022-11-18T16:01:43.853Z,9.45
2022-11-18T16:04:14.460Z,9.46
2022-11-18T16:06:44.501Z,9.39
2022-11-18T16:09:18.945Z,9.40
2022-11-18T16:12:05.174Z,9.40
2022-11-18T16:14:36.954Z,9.39
2022-11-18T16:17:06.488Z,9.40
2022-11-18T16:19:34.636Z,9.46
2022-11-18T16:22:04.216Z,9.40
2022-11-18T16:24:33.547Z,9.45
2022-11-18T16:27:04.760Z,9.40
2022-11-18T16:29:33.574Z,9.33
2022-11-18T16:32:01.747Z,9.37
2022-11-18T16:34:29.917Z,9.42
2022-11-18T16:36:59.908Z,9.34
2022-11-18T16:39:30.134Z,9.32
2022-11-18T16:42:07.431Z,9.34
2022-11-18T16:44:37.345Z,9.34
2022-11-18T16:47:13.969Z,9.35
2022-11-18T16:49:42.836Z,9.30
2022-11-18T16:52:11.053Z,9.30
2022-11-18T16:54:45.214Z,9.33
2022-11-18T16:57:14.775Z,9.37
2022-11-18T16:59:43.084Z,9.37
2022-11-18T17:02:12.977Z,9.36
2022-11-18T17:04:42.110Z,9.32
2022-11-18T17:07:10.483Z,9.29
2022-11-18T17:09:40.293Z,9.29
2022-11-18T17:12:09.247Z,9.29
2022-11-18T17:14:38.614Z,9.29
2022-11-18T17:17:08.177Z,9.33
2022-11-18T17:19:37.790Z,9.30
2022-11-18T17:22:06.852Z,9.27
2022-11-18T17:24:35.064Z,9.27
2022-11-18T17:27:05.549Z,9.32
2022-11-18T17:29:34.685Z,9.29
2022-11-18T17:32:02.976Z,9.26
2022-11-18T17:34:32.268Z,9.34
2022-11-18T17:37:06.431Z,9.36
2022-11-18T17:39:35.202Z,9.36
2022-11-18T17:42:22.509Z,9.33
2022-11-18T17:44:50.734Z,9.31
2022-11-18T17:47:19.191Z,9.36
2022-11-18T17:49:47.410Z,9.27
2022-11-18T17:52:15.642Z,9.30
2022-11-18T17:54:43.761Z,9.32
2022-11-18T17:57:13.324Z,9.33
2022-11-18T17:59:41.471Z,9.30
2022-11-18T18:02:11.697Z,9.32
2022-11-18T18:04:39.940Z,9.31
2022-11-18T18:07:08.245Z,9.29
2022-11-18T18:09:37.560Z,9.32
2022-11-18T18:12:27.590Z,9.35
2022-11-18T18:14:56.184Z,9.30
2022-11-18T18:17:24.377Z,9.30
2022-11-18T18:19:52.620Z,9.27
2022-11-18T18:22:25.277Z,9.36
2022-11-18T18:24:56.226Z,9.38
2022-11-18T18:27:24.606Z,9.36
2022-11-18T18:29:52.976Z,9.31
2022-11-18T18:32:22.516Z,9.32
2022-11-18T18:34:50.665Z,9.33
2022-11-18T18:37:18.814Z,9.32
2022-11-18T18:39:46.981Z,9.30
2022-11-18T18:42:15.338Z,9.22
2022-11-18T18:45:15.744Z,9.19
2022-11-18T18:47:45.240Z,9.21
2022-11-18T18:50:13.403Z,9.18
2022-11-18T18:52:42.049Z,9.17
2022-11-18T18:55:10.788Z,9.17
2022-11-18T18:57:38.968Z,9.19
2022-11-18T19:00:10.606Z,9.23
2022-11-18T19:02:38.920Z,9.27
2022-11-18T19:05:09.310Z,9.25
2022-11-18T19:07:37.561Z,9.27
2022-11-18T19:10:07.463Z,9.21
2022-11-18T19:12:44.021Z,9.18
2022-11-18T19:15:13.815Z,9.14
2022-11-18T19:17:42.679Z,9.18
2022-11-18T19:20:31.680Z,9.18
2022-11-18T19:23:03.545Z,9.16
2022-11-18T19:25:35.529Z,9.20
2022-11-18T19:28:03.749Z,9.16
2022-11-18T19:30:33.142Z,9.12
2022-11-18T19:33:01.296Z,9.14
2022-11-18T19:35:31.129Z,9.17
2022-11-18T19:37:59.318Z,9.17
2022-11-18T19:40:27.504Z,9.18
2022-11-18T19:42:55.857Z,9.19
2022-11-18T19:45:24.102Z,9.18
2022-11-18T19:47:52.228Z,9.23
2022-11-18T19:50:20.611Z,9.24
2022-11-18T19:52:50.150Z,9.22
2022-11-18T19:55:18.436Z,9.22
2022-11-18T19:57:46.635Z,9.22
2022-11-18T20:00:16.161Z,9.21
2022-11-18T20:02:44.781Z,9.19
2022-11-18T20:05:30.269Z,9.16
2022-11-18T20:08:00.008Z,9.15
2022-11-18T20:10:28.160Z,9.16
2022-11-18T20:12:57.716Z,9.18
2022-11-18T20:15:25.984Z,9.17
2022-11-18T20:17:54.165Z,9.16
2022-11-18T20:20:22.468Z,9.07
2022-11-18T20:22:50.718Z,9.10
2022-11-18T20:25:20.436Z,9.14
2022-11-18T20:27:48.728Z,9.09
2022-11-18T20:30:17.740Z,9.14
2022-11-18T20:32:46.740Z,9.10
2022-11-18T20:35:15.476Z,9.09
2022-11-18T20:37:43.648Z,9.09
2022-11-18T20:40:12.476Z,9.11
2022-11-18T20:42:59.653Z,9.06
2022-11-18T20:45:28.007Z,9.06
2022-11-18T20:47:56.224Z,9.08
2022-11-18T20:50:24.495Z,9.08
2022-11-18T20:52:52.706Z,9.08
2022-11-18T20:55:21.377Z,9.05
2022-11-18T20:57:51.140Z,9.03
2022-11-18T21:00:19.875Z,9.02
2022-11-18T21:02:48.291Z,8.98
2022-11-18T21:05:16.534Z,8.97
2022-11-18T21:07:44.833Z,8.94
2022-11-18T21:10:13.008Z,8.92
2022-11-18T21:13:01.769Z,8.93
2022-11-18T21:15:30.480Z,8.95
2022-11-18T21:17:59.190Z,8.92
2022-11-18T21:20:44.935Z,8.91
2022-11-18T21:23:13.438Z,8.91
2022-11-18T21:25:41.641Z,8.83
2022-11-18T21:28:10.204Z,8.90
2022-11-18T21:30:40.039Z,8.87
2022-11-18T21:33:08.365Z,8.86
2022-11-18T21:35:36.645Z,8.83
2022-11-18T21:38:06.605Z,8.82
2022-11-18T21:40:34.815Z,8.80
2022-11-18T21:43:03.000Z,8.81
2022-11-18T21:45:32.688Z,8.85
2022-11-18T21:48:02.292Z,8.83
2022-11-18T21:50:30.898Z,8.85
2022-11-18T21:52:59.192Z,8.72
2022-11-18T21:55:27.427Z,8.71
2022-11-18T21:57:59.860Z,8.72
2022-11-18T22:00:31.646Z,8.68
2022-11-18T22:03:00.255Z,8.62
2022-11-18T22:05:29.777Z,8.57
2022-11-18T22:07:58.344Z,8.60
2022-11-18T22:10:26.619Z,8.59
2022-11-18T22:12:54.872Z,8.60
2022-11-18T22:15:23.098Z,8.59
2022-11-18T22:17:51.340Z,8.55
2022-11-18T22:20:20.026Z,8.51
2022-11-18T22:22:49.610Z,8.48
2022-11-18T22:25:18.003Z,8.42
2022-11-18T22:27:46.192Z,8.46
2022-11-18T22:30:14.465Z,8.42
2022-11-18T22:32:43.556Z,8.38
2022-11-18T22:35:11.831Z,8.43
2022-11-18T22:37:40.099Z,8.46
2022-11-18T22:40:11.340Z,8.55
2022-11-18T22:42:47.285Z,8.61
2022-11-18T22:45:15.840Z,8.64
2022-11-18T22:47:44.236Z,8.68
2022-11-18T22:50:12.505Z,8.66
2022-11-18T22:52:41.288Z,8.67
2022-11-18T22:55:12.004Z,8.72
2022-11-18T22:57:40.194Z,8.71
2022-11-18T23:00:10.082Z,8.68
2022-11-18T23:02:38.310Z,8.76
2022-11-18T23:05:07.941Z,8.73
2022-11-18T23:07:36.394Z,8.75
2022-11-18T23:10:05.823Z,8.70
2022-11-18T23:12:52.812Z,8.76
2022-11-18T23:15:21.077Z,8.76
2022-11-18T23:17:49.247Z,8.72
2022-11-18T23:20:18.662Z,8.77
2022-11-18T23:22:46.840Z,8.82
2022-11-18T23:25:15.076Z,8.74
2022-11-18T23:27:44.881Z,8.73
2022-11-18T23:30:14.398Z,8.77
2022-11-18T23:32:42.637Z,8.79
2022-11-18T23:35:10.815Z,8.79
2022-11-18T23:37:39.075Z,8.78
2022-11-18T23:40:08.781Z,8.80
2022-11-18T23:42:36.970Z,8.74
2022-11-18T23:45:07.621Z,8.78
2022-11-18T23:47:35.834Z,8.75
2022-11-18T23:50:04.036Z,8.83
2022-11-18T23:52:32.568Z,8.81
2022-11-18T23:55:01.532Z,8.76
2022-11-18T23:57:29.678Z,8.74
2022-11-18T23:59:57.848Z,8.73
